sensor_id;sensor_type;location;lat;lon;timestamp;P1;durP1;ratioP1;P2;durP2;ratioP2
68256;SDS011;55069;51.568;4.656;2023-05-10T00:00:11;32.85;;;15.43;;
68256;SDS011;55069;51.568;4.656;2023-05-10T00:02:41;35.50;;;18.47;;
68256;SDS011;55069;51.568;4.656;2023-05-10T00:05:08;33.00;;;16.00;;
68256;SDS011;55069;51.568;4.656;2023-05-10T00:07:34;32.72;;;17.80;;
68256;SDS011;55069;51.568;4.656;2023-05-10T00:09:59;36.40;;;19.20;;
68256;SDS011;55069;51.568;4.656;2023-05-10T00:12:25;40.65;;;19.15;;
68256;SDS011;55069;51.568;4.656;2023-05-10T00:14:50;33.60;;;17.10;;
68256;SDS011;55069;51.568;4.656;2023-05-10T00:17:16;35.90;;;17.87;;
68256;SDS011;55069;51.568;4.656;2023-05-10T00:19:42;34.15;;;19.73;;
68256;SDS011;55069;51.568;4.656;2023-05-10T00:22:07;39.35;;;19.75;;
68256;SDS011;55069;51.568;4.656;2023-05-10T00:24:33;36.80;;;18.17;;
68256;SDS011;55069;51.568;4.656;2023-05-10T00:26:59;38.20;;;20.27;;
68256;SDS011;55069;51.568;4.656;2023-05-10T00:29:25;41.70;;;23.60;;
68256;SDS011;55069;51.568;4.656;2023-05-10T00:31:53;40.47;;;21.98;;
68256;SDS011;55069;51.568;4.656;2023-05-10T00:34:18;39.03;;;22.23;;
68256;SDS011;55069;51.568;4.656;2023-05-10T00:36:44;42.97;;;22.73;;
68256;SDS011;55069;51.568;4.656;2023-05-10T00:39:09;34.93;;;18.63;;
68256;SDS011;55069;51.568;4.656;2023-05-10T00:41:35;50.05;;;24.70;;
68256;SDS011;55069;51.568;4.656;2023-05-10T00:44:03;43.57;;;23.17;;
68256;SDS011;55069;51.568;4.656;2023-05-10T00:46:29;49.42;;;22.85;;
68256;SDS011;55069;51.568;4.656;2023-05-10T00:48:55;52.92;;;26.60;;
68256;SDS011;55069;51.568;4.656;2023-05-10T00:51:21;47.25;;;25.50;;
68256;SDS011;55069;51.568;4.656;2023-05-10T00:53:47;43.27;;;22.03;;
68256;SDS011;55069;51.568;4.656;2023-05-10T00:56:15;48.70;;;25.58;;
68256;SDS011;55069;51.568;4.656;2023-05-10T00:58:41;50.63;;;25.67;;
68256;SDS011;55069;51.568;4.656;2023-05-10T01:01:07;58.03;;;28.83;;
68256;SDS011;55069;51.568;4.656;2023-05-10T01:03:34;56.90;;;27.47;;
68256;SDS011;55069;51.568;4.656;2023-05-10T01:06:01;59.03;;;27.50;;
68256;SDS011;55069;51.568;4.656;2023-05-10T01:08:27;61.25;;;28.08;;
68256;SDS011;55069;51.568;4.656;2023-05-10T01:10:54;49.33;;;24.48;;
68256;SDS011;55069;51.568;4.656;2023-05-10T01:13:33;55.30;;;26.07;;
68256;SDS011;55069;51.568;4.656;2023-05-10T01:16:02;55.35;;;25.95;;
68256;SDS011;55069;51.568;4.656;2023-05-10T01:18:31;51.00;;;26.08;;
68256;SDS011;55069;51.568;4.656;2023-05-10T01:37:38;55.03;;;23.07;;
68256;SDS011;55069;51.568;4.656;2023-05-10T01:40:46;52.58;;;23.67;;
68256;SDS011;55069;51.568;4.656;2023-05-10T01:43:33;54.17;;;22.38;;
68256;SDS011;55069;51.568;4.656;2023-05-10T01:46:07;56.08;;;22.90;;
68256;SDS011;55069;51.568;4.656;2023-05-10T01:48:40;50.50;;;22.58;;
68256;SDS011;55069;51.568;4.656;2023-05-10T01:51:12;53.33;;;23.10;;
68256;SDS011;55069;51.568;4.656;2023-05-10T01:53:44;46.55;;;22.30;;
68256;SDS011;55069;51.568;4.656;2023-05-10T01:56:15;43.85;;;23.25;;
68256;SDS011;55069;51.568;4.656;2023-05-10T01:58:43;50.75;;;23.25;;
68256;SDS011;55069;51.568;4.656;2023-05-10T02:01:12;53.85;;;24.02;;
68256;SDS011;55069;51.568;4.656;2023-05-10T02:03:39;59.07;;;24.53;;
68256;SDS011;55069;51.568;4.656;2023-05-10T02:06:07;56.50;;;23.17;;
68256;SDS011;55069;51.568;4.656;2023-05-10T02:08:35;50.92;;;22.85;;
68256;SDS011;55069;51.568;4.656;2023-05-10T02:11:02;56.58;;;25.95;;
68256;SDS011;55069;51.568;4.656;2023-05-10T02:13:29;59.38;;;24.40;;
68256;SDS011;55069;51.568;4.656;2023-05-10T02:15:57;49.53;;;23.17;;
68256;SDS011;55069;51.568;4.656;2023-05-10T02:18:25;54.00;;;23.00;;
68256;SDS011;55069;51.568;4.656;2023-05-10T02:20:52;51.97;;;23.27;;
68256;SDS011;55069;51.568;4.656;2023-05-10T02:23:20;50.08;;;24.33;;
68256;SDS011;55069;51.568;4.656;2023-05-10T02:25:47;54.42;;;24.58;;
68256;SDS011;55069;51.568;4.656;2023-05-10T02:28:14;53.10;;;22.93;;
68256;SDS011;55069;51.568;4.656;2023-05-10T02:30:42;51.45;;;23.90;;
68256;SDS011;55069;51.568;4.656;2023-05-10T02:33:09;46.55;;;22.60;;
68256;SDS011;55069;51.568;4.656;2023-05-10T02:35:36;52.17;;;25.00;;
68256;SDS011;55069;51.568;4.656;2023-05-10T02:38:04;52.38;;;23.83;;
68256;SDS011;55069;51.568;4.656;2023-05-10T02:40:31;54.47;;;25.10;;
68256;SDS011;55069;51.568;4.656;2023-05-10T02:42:58;60.25;;;26.33;;
68256;SDS011;55069;51.568;4.656;2023-05-10T02:45:27;58.50;;;27.67;;
68256;SDS011;55069;51.568;4.656;2023-05-10T02:47:55;60.35;;;27.42;;
68256;SDS011;55069;51.568;4.656;2023-05-10T02:50:22;53.22;;;25.02;;
68256;SDS011;55069;51.568;4.656;2023-05-10T02:52:51;49.93;;;23.50;;
68256;SDS011;55069;51.568;4.656;2023-05-10T02:55:19;50.90;;;23.30;;
68256;SDS011;55069;51.568;4.656;2023-05-10T02:57:54;48.88;;;24.10;;
68256;SDS011;55069;51.568;4.656;2023-05-10T03:00:24;47.92;;;23.23;;
68256;SDS011;55069;51.568;4.656;2023-05-10T03:02:50;43.63;;;22.58;;
68256;SDS011;55069;51.568;4.656;2023-05-10T03:05:16;44.90;;;24.27;;
68256;SDS011;55069;51.568;4.656;2023-05-10T03:07:42;50.22;;;24.63;;
68256;SDS011;55069;51.568;4.656;2023-05-10T03:10:08;52.53;;;23.70;;
68256;SDS011;55069;51.568;4.656;2023-05-10T03:18:23;49.25;;;24.92;;
68256;SDS011;55069;51.568;4.656;2023-05-10T03:20:59;56.45;;;24.50;;
68256;SDS011;55069;51.568;4.656;2023-05-10T03:23:34;55.47;;;23.63;;
68256;SDS011;55069;51.568;4.656;2023-05-10T03:26:05;52.83;;;24.50;;
68256;SDS011;55069;51.568;4.656;2023-05-10T03:28:33;48.38;;;25.83;;
68256;SDS011;55069;51.568;4.656;2023-05-10T03:31:02;59.42;;;27.25;;
68256;SDS011;55069;51.568;4.656;2023-05-10T03:33:30;53.45;;;25.67;;
68256;SDS011;55069;51.568;4.656;2023-05-10T03:35:57;50.63;;;24.40;;
68256;SDS011;55069;51.568;4.656;2023-05-10T03:38:22;56.73;;;25.83;;
68256;SDS011;55069;51.568;4.656;2023-05-10T03:40:48;56.10;;;27.52;;
68256;SDS011;55069;51.568;4.656;2023-05-10T03:43:14;55.47;;;26.35;;
68256;SDS011;55069;51.568;4.656;2023-05-10T03:45:40;61.20;;;25.90;;
68256;SDS011;55069;51.568;4.656;2023-05-10T03:48:06;48.60;;;24.13;;
68256;SDS011;55069;51.568;4.656;2023-05-10T03:50:32;52.25;;;25.10;;
68256;SDS011;55069;51.568;4.656;2023-05-10T03:52:57;42.17;;;21.37;;
68256;SDS011;55069;51.568;4.656;2023-05-10T03:55:23;47.27;;;23.57;;
68256;SDS011;55069;51.568;4.656;2023-05-10T03:57:49;49.50;;;23.95;;
68256;SDS011;55069;51.568;4.656;2023-05-10T04:00:15;45.28;;;22.75;;
68256;SDS011;55069;51.568;4.656;2023-05-10T04:02:41;49.40;;;24.17;;
68256;SDS011;55069;51.568;4.656;2023-05-10T04:05:10;59.33;;;27.30;;
68256;SDS011;55069;51.568;4.656;2023-05-10T04:07:36;50.47;;;25.27;;
68256;SDS011;55069;51.568;4.656;2023-05-10T04:10:02;47.92;;;25.60;;
68256;SDS011;55069;51.568;4.656;2023-05-10T04:12:28;57.10;;;27.17;;
68256;SDS011;55069;51.568;4.656;2023-05-10T04:14:54;54.50;;;27.90;;
68256;SDS011;55069;51.568;4.656;2023-05-10T04:17:20;66.72;;;30.58;;
68256;SDS011;55069;51.568;4.656;2023-05-10T04:19:46;70.63;;;30.80;;
68256;SDS011;55069;51.568;4.656;2023-05-10T04:22:12;75.22;;;32.05;;
68256;SDS011;55069;51.568;4.656;2023-05-10T04:24:38;69.43;;;30.73;;
68256;SDS011;55069;51.568;4.656;2023-05-10T04:27:03;72.13;;;31.50;;
68256;SDS011;55069;51.568;4.656;2023-05-10T04:29:29;71.57;;;31.73;;
68256;SDS011;55069;51.568;4.656;2023-05-10T04:31:55;64.03;;;32.45;;
68256;SDS011;55069;51.568;4.656;2023-05-10T04:34:21;69.82;;;32.28;;
68256;SDS011;55069;51.568;4.656;2023-05-10T04:36:47;76.37;;;34.60;;
68256;SDS011;55069;51.568;4.656;2023-05-10T04:39:13;86.70;;;37.17;;
68256;SDS011;55069;51.568;4.656;2023-05-10T04:41:38;85.87;;;37.37;;
68256;SDS011;55069;51.568;4.656;2023-05-10T04:44:04;79.82;;;36.78;;
68256;SDS011;55069;51.568;4.656;2023-05-10T04:46:30;85.67;;;36.67;;
68256;SDS011;55069;51.568;4.656;2023-05-10T04:48:56;71.53;;;34.05;;
68256;SDS011;55069;51.568;4.656;2023-05-10T04:51:21;81.87;;;36.70;;
68256;SDS011;55069;51.568;4.656;2023-05-10T04:53:47;75.10;;;34.23;;
68256;SDS011;55069;51.568;4.656;2023-05-10T04:56:13;62.60;;;28.90;;
68256;SDS011;55069;51.568;4.656;2023-05-10T04:58:38;57.90;;;26.70;;
68256;SDS011;55069;51.568;4.656;2023-05-10T05:01:05;57.42;;;28.77;;
68256;SDS011;55069;51.568;4.656;2023-05-10T05:03:32;55.88;;;27.25;;
68256;SDS011;55069;51.568;4.656;2023-05-10T05:05:57;54.93;;;27.60;;
68256;SDS011;55069;51.568;4.656;2023-05-10T05:08:23;53.05;;;25.67;;
68256;SDS011;55069;51.568;4.656;2023-05-10T05:10:49;55.50;;;25.00;;
68256;SDS011;55069;51.568;4.656;2023-05-10T05:13:15;52.97;;;25.55;;
68256;SDS011;55069;51.568;4.656;2023-05-10T05:15:40;45.17;;;23.37;;
68256;SDS011;55069;51.568;4.656;2023-05-10T05:18:06;54.07;;;24.97;;
68256;SDS011;55069;51.568;4.656;2023-05-10T05:20:32;46.42;;;22.77;;
68256;SDS011;55069;51.568;4.656;2023-05-10T05:22:59;41.90;;;22.00;;
68256;SDS011;55069;51.568;4.656;2023-05-10T05:25:24;36.00;;;17.75;;
68256;SDS011;55069;51.568;4.656;2023-05-10T05:27:50;38.17;;;17.10;;
68256;SDS011;55069;51.568;4.656;2023-05-10T05:30:16;33.78;;;16.58;;
68256;SDS011;55069;51.568;4.656;2023-05-10T05:32:42;30.47;;;14.17;;
68256;SDS011;55069;51.568;4.656;2023-05-10T05:35:07;29.50;;;12.38;;
68256;SDS011;55069;51.568;4.656;2023-05-10T05:37:33;24.70;;;12.27;;
68256;SDS011;55069;51.568;4.656;2023-05-10T05:39:59;25.67;;;11.50;;
68256;SDS011;55069;51.568;4.656;2023-05-10T05:42:26;24.67;;;10.68;;
68256;SDS011;55069;51.568;4.656;2023-05-10T05:44:52;20.97;;;10.00;;
68256;SDS011;55069;51.568;4.656;2023-05-10T05:47:17;23.80;;;9.10;;
68256;SDS011;55069;51.568;4.656;2023-05-10T05:49:43;18.05;;;8.43;;
68256;SDS011;55069;51.568;4.656;2023-05-10T05:52:11;17.77;;;9.00;;
68256;SDS011;55069;51.568;4.656;2023-05-10T05:54:37;19.00;;;10.37;;
68256;SDS011;55069;51.568;4.656;2023-05-10T05:57:02;18.48;;;8.82;;
68256;SDS011;55069;51.568;4.656;2023-05-10T05:59:28;20.97;;;10.77;;
68256;SDS011;55069;51.568;4.656;2023-05-10T06:01:54;15.85;;;9.38;;
68256;SDS011;55069;51.568;4.656;2023-05-10T06:04:19;19.87;;;9.07;;
68256;SDS011;55069;51.568;4.656;2023-05-10T06:06:45;17.70;;;9.00;;
68256;SDS011;55069;51.568;4.656;2023-05-10T06:09:11;18.70;;;8.88;;
68256;SDS011;55069;51.568;4.656;2023-05-10T06:11:37;17.30;;;8.65;;
68256;SDS011;55069;51.568;4.656;2023-05-10T06:14:03;19.08;;;9.27;;
68256;SDS011;55069;51.568;4.656;2023-05-10T06:16:30;17.10;;;8.45;;
68256;SDS011;55069;51.568;4.656;2023-05-10T06:18:56;17.23;;;8.17;;
68256;SDS011;55069;51.568;4.656;2023-05-10T06:21:22;20.02;;;8.30;;
68256;SDS011;55069;51.568;4.656;2023-05-10T06:23:47;13.17;;;7.77;;
68256;SDS011;55069;51.568;4.656;2023-05-10T06:26:13;14.20;;;7.40;;
68256;SDS011;55069;51.568;4.656;2023-05-10T06:28:39;14.00;;;8.23;;
68256;SDS011;55069;51.568;4.656;2023-05-10T06:31:05;17.08;;;7.95;;
68256;SDS011;55069;51.568;4.656;2023-05-10T06:33:31;15.18;;;8.15;;
68256;SDS011;55069;51.568;4.656;2023-05-10T06:35:57;20.67;;;9.10;;
68256;SDS011;55069;51.568;4.656;2023-05-10T06:38:23;18.17;;;8.80;;
68256;SDS011;55069;51.568;4.656;2023-05-10T06:40:49;14.75;;;8.85;;
68256;SDS011;55069;51.568;4.656;2023-05-10T06:43:15;21.47;;;9.00;;
68256;SDS011;55069;51.568;4.656;2023-05-10T06:45:40;17.85;;;9.52;;
68256;SDS011;55069;51.568;4.656;2023-05-10T06:48:06;17.00;;;9.10;;
68256;SDS011;55069;51.568;4.656;2023-05-10T06:50:32;15.25;;;8.77;;
68256;SDS011;55069;51.568;4.656;2023-05-10T06:52:58;18.60;;;9.80;;
68256;SDS011;55069;51.568;4.656;2023-05-10T06:55:25;14.13;;;9.47;;
68256;SDS011;55069;51.568;4.656;2023-05-10T06:57:51;19.20;;;10.10;;
68256;SDS011;55069;51.568;4.656;2023-05-10T07:00:18;16.48;;;9.80;;
68256;SDS011;55069;51.568;4.656;2023-05-10T07:02:44;22.60;;;9.73;;
68256;SDS011;55069;51.568;4.656;2023-05-10T07:05:10;18.70;;;10.33;;
68256;SDS011;55069;51.568;4.656;2023-05-10T07:07:36;22.65;;;10.88;;
68256;SDS011;55069;51.568;4.656;2023-05-10T07:10:02;17.48;;;10.48;;
68256;SDS011;55069;51.568;4.656;2023-05-10T07:12:28;17.67;;;9.47;;
68256;SDS011;55069;51.568;4.656;2023-05-10T07:14:54;24.42;;;10.43;;
68256;SDS011;55069;51.568;4.656;2023-05-10T07:17:19;16.37;;;10.10;;
68256;SDS011;55069;51.568;4.656;2023-05-10T07:19:45;18.80;;;9.90;;
68256;SDS011;55069;51.568;4.656;2023-05-10T07:22:11;17.23;;;9.57;;
68256;SDS011;55069;51.568;4.656;2023-05-10T07:24:36;14.47;;;8.83;;
68256;SDS011;55069;51.568;4.656;2023-05-10T07:27:02;14.73;;;8.45;;
68256;SDS011;55069;51.568;4.656;2023-05-10T07:29:28;16.80;;;9.13;;
68256;SDS011;55069;51.568;4.656;2023-05-10T07:31:53;18.40;;;9.20;;
68256;SDS011;55069;51.568;4.656;2023-05-10T07:34:19;16.33;;;9.57;;
68256;SDS011;55069;51.568;4.656;2023-05-10T07:36:45;16.10;;;9.18;;
68256;SDS011;55069;51.568;4.656;2023-05-10T07:39:11;13.57;;;8.48;;
68256;SDS011;55069;51.568;4.656;2023-05-10T07:41:37;13.50;;;8.20;;
68256;SDS011;55069;51.568;4.656;2023-05-10T07:44:04;14.02;;;8.10;;
68256;SDS011;55069;51.568;4.656;2023-05-10T07:46:29;17.23;;;8.48;;
68256;SDS011;55069;51.568;4.656;2023-05-10T07:48:55;17.87;;;9.50;;
68256;SDS011;55069;51.568;4.656;2023-05-10T07:51:21;15.57;;;8.45;;
68256;SDS011;55069;51.568;4.656;2023-05-10T07:53:47;16.43;;;8.30;;
68256;SDS011;55069;51.568;4.656;2023-05-10T07:56:23;16.55;;;7.85;;
68256;SDS011;55069;51.568;4.656;2023-05-10T07:59:03;13.07;;;7.50;;
68256;SDS011;55069;51.568;4.656;2023-05-10T08:01:31;15.23;;;7.95;;
68256;SDS011;55069;51.568;4.656;2023-05-10T08:03:58;13.13;;;6.72;;
68256;SDS011;55069;51.568;4.656;2023-05-10T08:06:25;12.63;;;6.65;;
68256;SDS011;55069;51.568;4.656;2023-05-10T08:08:55;12.55;;;6.82;;
68256;SDS011;55069;51.568;4.656;2023-05-10T08:11:21;10.70;;;6.90;;
68256;SDS011;55069;51.568;4.656;2023-05-10T08:13:47;9.23;;;5.63;;
68256;SDS011;55069;51.568;4.656;2023-05-10T08:16:14;13.98;;;6.65;;
68256;SDS011;55069;51.568;4.656;2023-05-10T08:18:42;14.15;;;7.45;;
68256;SDS011;55069;51.568;4.656;2023-05-10T08:21:09;10.73;;;6.60;;
68256;SDS011;55069;51.568;4.656;2023-05-10T08:23:36;10.85;;;7.07;;
68256;SDS011;55069;51.568;4.656;2023-05-10T08:26:02;12.98;;;7.82;;
68256;SDS011;55069;51.568;4.656;2023-05-10T08:28:28;13.70;;;7.50;;
68256;SDS011;55069;51.568;4.656;2023-05-10T08:30:54;13.67;;;7.43;;
68256;SDS011;55069;51.568;4.656;2023-05-10T08:33:19;10.02;;;6.80;;
68256;SDS011;55069;51.568;4.656;2023-05-10T08:35:45;10.82;;;5.80;;
68256;SDS011;55069;51.568;4.656;2023-05-10T08:38:11;9.18;;;5.25;;
68256;SDS011;55069;51.568;4.656;2023-05-10T08:40:38;9.67;;;4.83;;
68256;SDS011;55069;51.568;4.656;2023-05-10T08:43:08;6.25;;;3.72;;
68256;SDS011;55069;51.568;4.656;2023-05-10T08:45:42;6.78;;;2.97;;
68256;SDS011;55069;51.568;4.656;2023-05-10T08:48:09;7.70;;;3.45;;
68256;SDS011;55069;51.568;4.656;2023-05-10T08:50:36;6.97;;;3.65;;
68256;SDS011;55069;51.568;4.656;2023-05-10T08:53:04;5.97;;;3.53;;
68256;SDS011;55069;51.568;4.656;2023-05-10T08:55:34;8.65;;;3.40;;
68256;SDS011;55069;51.568;4.656;2023-05-10T08:58:02;6.55;;;3.47;;
68256;SDS011;55069;51.568;4.656;2023-05-10T09:00:29;7.63;;;4.18;;
68256;SDS011;55069;51.568;4.656;2023-05-10T09:02:55;6.32;;;3.90;;
68256;SDS011;55069;51.568;4.656;2023-05-10T09:05:22;9.83;;;4.50;;
68256;SDS011;55069;51.568;4.656;2023-05-10T09:07:47;8.73;;;4.05;;
68256;SDS011;55069;51.568;4.656;2023-05-10T09:10:13;10.10;;;4.50;;
68256;SDS011;55069;51.568;4.656;2023-05-10T09:12:40;8.93;;;4.70;;
68256;SDS011;55069;51.568;4.656;2023-05-10T09:15:06;6.50;;;4.03;;
68256;SDS011;55069;51.568;4.656;2023-05-10T09:17:32;7.82;;;4.25;;
68256;SDS011;55069;51.568;4.656;2023-05-10T09:19:59;10.25;;;5.10;;
68256;SDS011;55069;51.568;4.656;2023-05-10T09:22:26;8.82;;;4.80;;
68256;SDS011;55069;51.568;4.656;2023-05-10T09:25:05;10.10;;;5.15;;
68256;SDS011;55069;51.568;4.656;2023-05-10T09:27:36;9.07;;;4.80;;
68256;SDS011;55069;51.568;4.656;2023-05-10T09:30:03;6.72;;;4.40;;
68256;SDS011;55069;51.568;4.656;2023-05-10T09:32:43;6.03;;;3.53;;
68256;SDS011;55069;51.568;4.656;2023-05-10T09:35:10;5.75;;;3.60;;
68256;SDS011;55069;51.568;4.656;2023-05-10T09:37:41;6.38;;;3.50;;
68256;SDS011;55069;51.568;4.656;2023-05-10T09:40:11;8.00;;;3.70;;
68256;SDS011;55069;51.568;4.656;2023-05-10T09:42:38;6.40;;;3.20;;
68256;SDS011;55069;51.568;4.656;2023-05-10T09:45:04;5.13;;;2.90;;
68256;SDS011;55069;51.568;4.656;2023-05-10T09:47:33;8.25;;;2.88;;
68256;SDS011;55069;51.568;4.656;2023-05-10T09:50:00;7.77;;;3.40;;
68256;SDS011;55069;51.568;4.656;2023-05-10T09:52:30;6.38;;;3.28;;
68256;SDS011;55069;51.568;4.656;2023-05-10T09:54:56;4.05;;;3.22;;
68256;SDS011;55069;51.568;4.656;2023-05-10T09:57:22;7.43;;;3.28;;
68256;SDS011;55069;51.568;4.656;2023-05-10T09:59:49;5.17;;;2.87;;
68256;SDS011;55069;51.568;4.656;2023-05-10T10:02:15;5.30;;;3.00;;
68256;SDS011;55069;51.568;4.656;2023-05-10T10:04:41;5.28;;;3.08;;
68256;SDS011;55069;51.568;4.656;2023-05-10T10:07:07;4.20;;;3.08;;
68256;SDS011;55069;51.568;4.656;2023-05-10T10:09:33;4.70;;;2.97;;
68256;SDS011;55069;51.568;4.656;2023-05-10T10:12:03;4.72;;;3.00;;
68256;SDS011;55069;51.568;4.656;2023-05-10T10:14:30;5.25;;;2.78;;
68256;SDS011;55069;51.568;4.656;2023-05-10T10:16:55;7.70;;;2.73;;
68256;SDS011;55069;51.568;4.656;2023-05-10T10:19:21;5.47;;;2.97;;
68256;SDS011;55069;51.568;4.656;2023-05-10T10:21:47;5.68;;;2.95;;
68256;SDS011;55069;51.568;4.656;2023-05-10T10:24:14;4.27;;;2.70;;
68256;SDS011;55069;51.568;4.656;2023-05-10T10:26:41;4.65;;;3.05;;
68256;SDS011;55069;51.568;4.656;2023-05-10T10:29:25;5.20;;;3.58;;
68256;SDS011;55069;51.568;4.656;2023-05-10T10:32:07;5.53;;;3.45;;
68256;SDS011;55069;51.568;4.656;2023-05-10T10:34:44;9.57;;;3.77;;
68256;SDS011;55069;51.568;4.656;2023-05-10T10:37:10;7.55;;;4.25;;
68256;SDS011;55069;51.568;4.656;2023-05-10T10:39:36;6.13;;;3.22;;
68256;SDS011;55069;51.568;4.656;2023-05-10T10:42:01;5.37;;;3.40;;
68256;SDS011;55069;51.568;4.656;2023-05-10T10:47:01;5.50;;;3.88;;
68256;SDS011;55069;51.568;4.656;2023-05-10T10:49:27;6.07;;;3.93;;
68256;SDS011;55069;51.568;4.656;2023-05-10T10:55:02;5.72;;;4.07;;
68256;SDS011;55069;51.568;4.656;2023-05-10T11:02:49;9.27;;;4.00;;
68256;SDS011;55069;51.568;4.656;2023-05-10T11:07:54;7.10;;;3.95;;
68256;SDS011;55069;51.568;4.656;2023-05-10T11:10:21;7.55;;;3.55;;
68256;SDS011;55069;51.568;4.656;2023-05-10T11:12:58;9.23;;;4.30;;
68256;SDS011;55069;51.568;4.656;2023-05-10T11:15:37;5.60;;;3.87;;
68256;SDS011;55069;51.568;4.656;2023-05-10T11:18:20;7.97;;;4.28;;
68256;SDS011;55069;51.568;4.656;2023-05-10T11:20:54;7.90;;;4.43;;
68256;SDS011;55069;51.568;4.656;2023-05-10T11:23:23;5.85;;;3.65;;
68256;SDS011;55069;51.568;4.656;2023-05-10T11:25:54;9.27;;;4.10;;
68256;SDS011;55069;51.568;4.656;2023-05-10T11:28:20;5.13;;;3.10;;
68256;SDS011;55069;51.568;4.656;2023-05-10T11:30:45;4.70;;;3.08;;
68256;SDS011;55069;51.568;4.656;2023-05-10T11:33:16;7.20;;;3.45;;
68256;SDS011;55069;51.568;4.656;2023-05-10T11:35:42;14.90;;;3.33;;
68256;SDS011;55069;51.568;4.656;2023-05-10T11:38:09;6.32;;;3.17;;
68256;SDS011;55069;51.568;4.656;2023-05-10T11:40:35;6.35;;;2.90;;
68256;SDS011;55069;51.568;4.656;2023-05-10T11:43:02;4.63;;;2.42;;
68256;SDS011;55069;51.568;4.656;2023-05-10T11:45:28;4.23;;;2.20;;
68256;SDS011;55069;51.568;4.656;2023-05-10T11:47:58;4.22;;;2.70;;
68256;SDS011;55069;51.568;4.656;2023-05-10T11:50:24;6.60;;;2.80;;
68256;SDS011;55069;51.568;4.656;2023-05-10T11:52:51;4.18;;;2.22;;
68256;SDS011;55069;51.568;4.656;2023-05-10T11:55:18;4.63;;;2.40;;
68256;SDS011;55069;51.568;4.656;2023-05-10T11:57:44;3.70;;;2.70;;
68256;SDS011;55069;51.568;4.656;2023-05-10T12:00:11;4.55;;;2.92;;
68256;SDS011;55069;51.568;4.656;2023-05-10T12:02:38;6.28;;;3.25;;
68256;SDS011;55069;51.568;4.656;2023-05-10T12:05:04;10.30;;;3.25;;
68256;SDS011;55069;51.568;4.656;2023-05-10T12:07:31;5.10;;;3.75;;
68256;SDS011;55069;51.568;4.656;2023-05-10T12:10:06;10.07;;;4.17;;
68256;SDS011;55069;51.568;4.656;2023-05-10T12:12:43;8.15;;;4.90;;
68256;SDS011;55069;51.568;4.656;2023-05-10T12:15:24;8.50;;;4.30;;
68256;SDS011;55069;51.568;4.656;2023-05-10T12:17:50;6.93;;;4.30;;
68256;SDS011;55069;51.568;4.656;2023-05-10T12:20:17;7.18;;;4.30;;
68256;SDS011;55069;51.568;4.656;2023-05-10T12:22:47;8.73;;;4.27;;
68256;SDS011;55069;51.568;4.656;2023-05-10T12:25:16;7.32;;;3.85;;
68256;SDS011;55069;51.568;4.656;2023-05-10T12:27:52;7.18;;;4.40;;
68256;SDS011;55069;51.568;4.656;2023-05-10T12:30:23;5.82;;;4.18;;
68256;SDS011;55069;51.568;4.656;2023-05-10T12:32:52;6.22;;;4.20;;
68256;SDS011;55069;51.568;4.656;2023-05-10T12:35:19;8.80;;;4.77;;
68256;SDS011;55069;51.568;4.656;2023-05-10T12:37:50;8.18;;;4.38;;
68256;SDS011;55069;51.568;4.656;2023-05-10T12:40:16;4.32;;;3.58;;
68256;SDS011;55069;51.568;4.656;2023-05-10T12:42:42;6.85;;;4.20;;
68256;SDS011;55069;51.568;4.656;2023-05-10T12:45:10;5.87;;;3.90;;
68256;SDS011;55069;51.568;4.656;2023-05-10T12:47:36;6.38;;;3.83;;
68256;SDS011;55069;51.568;4.656;2023-05-10T12:50:02;5.18;;;3.70;;
68256;SDS011;55069;51.568;4.656;2023-05-10T12:52:29;5.63;;;3.55;;
68256;SDS011;55069;51.568;4.656;2023-05-10T12:54:56;8.48;;;3.85;;
68256;SDS011;55069;51.568;4.656;2023-05-10T12:57:22;5.97;;;3.87;;
68256;SDS011;55069;51.568;4.656;2023-05-10T12:59:49;8.60;;;3.50;;
68256;SDS011;55069;51.568;4.656;2023-05-10T13:02:15;5.78;;;3.50;;
68256;SDS011;55069;51.568;4.656;2023-05-10T13:04:43;5.55;;;3.08;;
68256;SDS011;55069;51.568;4.656;2023-05-10T13:07:09;4.83;;;3.10;;
68256;SDS011;55069;51.568;4.656;2023-05-10T13:09:35;3.20;;;2.75;;
68256;SDS011;55069;51.568;4.656;2023-05-10T13:12:01;4.40;;;3.33;;
68256;SDS011;55069;51.568;4.656;2023-05-10T13:14:27;6.07;;;3.30;;
68256;SDS011;55069;51.568;4.656;2023-05-10T13:16:53;5.70;;;3.20;;
68256;SDS011;55069;51.568;4.656;2023-05-10T13:19:19;6.20;;;2.80;;
68256;SDS011;55069;51.568;4.656;2023-05-10T13:21:45;7.85;;;3.38;;
68256;SDS011;55069;51.568;4.656;2023-05-10T13:24:11;6.45;;;3.58;;
68256;SDS011;55069;51.568;4.656;2023-05-10T13:26:41;5.83;;;3.93;;
68256;SDS011;55069;51.568;4.656;2023-05-10T13:29:07;5.30;;;3.15;;
68256;SDS011;55069;51.568;4.656;2023-05-10T13:31:33;6.95;;;3.28;;
68256;SDS011;55069;51.568;4.656;2023-05-10T13:33:59;5.20;;;3.60;;
68256;SDS011;55069;51.568;4.656;2023-05-10T13:36:25;6.22;;;3.58;;
68256;SDS011;55069;51.568;4.656;2023-05-10T13:38:51;4.93;;;3.80;;
68256;SDS011;55069;51.568;4.656;2023-05-10T13:41:17;7.07;;;3.38;;
68256;SDS011;55069;51.568;4.656;2023-05-10T13:43:43;5.37;;;3.60;;
68256;SDS011;55069;51.568;4.656;2023-05-10T13:46:08;5.47;;;3.95;;
68256;SDS011;55069;51.568;4.656;2023-05-10T13:48:34;7.72;;;3.55;;
68256;SDS011;55069;51.568;4.656;2023-05-10T13:51:02;6.37;;;4.10;;
68256;SDS011;55069;51.568;4.656;2023-05-10T13:53:28;5.38;;;4.00;;
68256;SDS011;55069;51.568;4.656;2023-05-10T13:55:53;5.63;;;4.18;;
68256;SDS011;55069;51.568;4.656;2023-05-10T13:58:19;10.47;;;4.47;;
68256;SDS011;55069;51.568;4.656;2023-05-10T14:00:45;5.43;;;3.60;;
68256;SDS011;55069;51.568;4.656;2023-05-10T14:03:10;6.90;;;4.60;;
68256;SDS011;55069;51.568;4.656;2023-05-10T14:05:36;6.97;;;4.30;;
68256;SDS011;55069;51.568;4.656;2023-05-10T14:08:02;5.80;;;4.22;;
68256;SDS011;55069;51.568;4.656;2023-05-10T14:10:27;7.70;;;4.73;;
68256;SDS011;55069;51.568;4.656;2023-05-10T14:12:53;9.25;;;4.82;;
68256;SDS011;55069;51.568;4.656;2023-05-10T14:15:19;6.63;;;4.63;;
68256;SDS011;55069;51.568;4.656;2023-05-10T14:17:44;9.25;;;4.35;;
68256;SDS011;55069;51.568;4.656;2023-05-10T14:20:10;6.53;;;4.33;;
68256;SDS011;55069;51.568;4.656;2023-05-10T14:22:36;6.50;;;4.55;;
68256;SDS011;55069;51.568;4.656;2023-05-10T14:25:02;7.37;;;5.00;;
68256;SDS011;55069;51.568;4.656;2023-05-10T14:27:28;6.95;;;4.38;;
68256;SDS011;55069;51.568;4.656;2023-05-10T14:29:53;8.60;;;4.45;;
68256;SDS011;55069;51.568;4.656;2023-05-10T14:32:19;9.57;;;5.80;;
68256;SDS011;55069;51.568;4.656;2023-05-10T14:34:45;9.47;;;6.13;;
68256;SDS011;55069;51.568;4.656;2023-05-10T14:37:10;9.90;;;7.45;;
68256;SDS011;55069;51.568;4.656;2023-05-10T14:39:38;14.20;;;6.85;;
68256;SDS011;55069;51.568;4.656;2023-05-10T14:42:04;13.02;;;8.35;;
68256;SDS011;55069;51.568;4.656;2023-05-10T14:44:30;13.02;;;7.75;;
68256;SDS011;55069;51.568;4.656;2023-05-10T14:46:56;10.50;;;7.72;;
68256;SDS011;55069;51.568;4.656;2023-05-10T14:49:22;10.15;;;7.30;;
68256;SDS011;55069;51.568;4.656;2023-05-10T14:51:50;7.90;;;6.05;;
68256;SDS011;55069;51.568;4.656;2023-05-10T14:54:16;11.93;;;5.97;;
68256;SDS011;55069;51.568;4.656;2023-05-10T14:56:41;9.20;;;6.03;;
68256;SDS011;55069;51.568;4.656;2023-05-10T14:59:07;10.70;;;6.28;;
68256;SDS011;55069;51.568;4.656;2023-05-10T15:01:33;11.83;;;5.50;;
68256;SDS011;55069;51.568;4.656;2023-05-10T15:04:02;13.77;;;6.97;;
68256;SDS011;55069;51.568;4.656;2023-05-10T15:06:32;13.35;;;7.10;;
68256;SDS011;55069;51.568;4.656;2023-05-10T15:09:00;10.70;;;6.53;;